Time;durP1;ratioP1;P1;durP2;ratioP2;P2;SDS_P1;SDS_P2;PMS_P1;PMS_P2;Temp;Humidity;BMP_temperature;BMP_pressure;BME280_temperature;BME280_humidity;BME280_pressure;Samples;Min_cycle;Max_cycle;Signal;HPM_P1;HPM_P2
2022/09/25 00:01:30;;;;;;;0.05;0.05;;;;;;;11.79;100.00;96244.56;4966989;28;20050;-76
2022/09/25 00:04:17;;;;;;;0.10;0.10;;;;;;;11.81;100.00;96243.25;4966666;28;20046;-76
2022/09/25 00:07:02;;;;;;;0.03;0.03;;;;;;;11.80;100.00;96241.66;4949149;28;20141;-76
2022/09/25 00:09:48;;;;;;;0.10;0.10;;;;;;;11.85;100.00;96252.41;4967415;28;20082;-76
2022/09/25 00:12:34;;;;;;;0.10;0.10;;;;;;;11.85;100.00;96247.06;4969648;28;20379;-76
2022/09/25 00:15:21;;;;;;;0.10;0.10;;;;;;;11.80;100.00;96247.00;4967371;28;20038;-77
2022/09/25 00:18:07;;;;;;;0.00;0.00;;;;;;;11.79;100.00;96248.06;4963088;28;20042;-77
2022/09/25 00:21:00;;;;;;;0.10;0.10;;;;;;;11.76;100.00;96248.59;4966966;28;20066;-77
2022/09/25 00:23:46;;;;;;;0.10;0.10;;;;;;;11.75;100.00;96241.63;4967236;28;20494;-76
2022/09/25 00:26:35;;;;;;;0.10;0.10;;;;;;;11.80;100.00;96244.34;4968373;28;20590;-76
2022/09/25 00:29:21;;;;;;;0.10;0.10;;;;;;;11.83;100.00;96241.16;4952179;28;20042;-77
2022/09/25 00:32:09;;;;;;;0.10;0.10;;;;;;;11.81;100.00;96237.09;4967041;28;20501;-77
2022/09/25 00:34:54;;;;;;;0.20;0.10;;;;;;;11.83;100.00;96237.63;4956815;28;20051;-76
2022/09/25 00:37:40;;;;;;;0.10;0.10;;;;;;;11.90;100.00;96233.66;4968228;28;20493;-77
2022/09/25 00:40:26;;;;;;;0.10;0.10;;;;;;;11.93;100.00;96243.88;4966045;28;21065;-78
2022/09/25 00:43:34;;;;;;;0.10;0.10;;;;;;;11.96;100.00;96248.69;4964954;28;20117;-77
2022/09/25 00:46:30;;;;;;;0.00;0.00;;;;;;;11.98;100.00;96237.69;4966783;28;20065;-77
2022/09/25 00:49:21;;;;;;;0.10;0.10;;;;;;;12.00;100.00;96238.25;4964888;28;20057;-76
2022/09/25 00:52:11;;;;;;;0.10;0.10;;;;;;;12.01;100.00;96233.72;4963850;28;20494;-77
2022/09/25 00:55:02;;;;;;;0.10;0.10;;;;;;;12.02;100.00;96238.81;4966314;28;20065;-77
2022/09/25 00:57:51;;;;;;;0.10;0.10;;;;;;;12.02;100.00;96238.81;4957736;28;20077;-76
2022/09/25 01:00:37;;;;;;;0.10;0.10;;;;;;;11.98;100.00;96233.19;4964789;28;20042;-76
2022/09/25 01:03:25;;;;;;;0.10;0.10;;;;;;;11.83;100.00;96238.47;4951142;28;20042;-76
2022/09/25 01:06:13;;;;;;;0.10;0.10;;;;;;;11.77;100.00;96236.78;4964530;28;20137;-77
2022/09/25 01:08:59;;;;;;;0.10;0.10;;;;;;;11.77;100.00;96230.63;4967116;28;20488;-76
2022/09/25 01:11:45;;;;;;;0.10;0.10;;;;;;;11.80;100.00;96238.97;4968598;28;20458;-76
2022/09/25 01:14:32;;;;;;;1.35;0.65;;;;;;;11.79;100.00;96237.34;4967076;28;20065;-76
2022/09/25 01:17:29;;;;;;;2.22;0.90;;;;;;;11.72;100.00;96226.03;4962350;28;20042;-76
2022/09/25 01:20:33;;;;;;;0.05;0.05;;;;;;;11.72;100.00;96232.22;4954298;28;20485;-76
2022/09/25 01:23:28;;;;;;;0.00;0.00;;;;;;;11.75;100.00;96233.56;4965827;28;20046;-76
2022/09/25 01:26:59;;;;;;;0.10;0.10;;;;;;;11.72;100.00;96234.88;4953042;28;20074;-76
2022/09/25 01:29:59;;;;;;;0.10;0.10;;;;;;;11.67;100.00;96231.38;4966602;28;20343;-76
2022/09/25 01:32:51;;;;;;;0.10;0.10;;;;;;;11.51;100.00;96227.00;4961965;28;20046;-76
2022/09/25 01:35:58;;;;;;;0.10;0.10;;;;;;;11.55;100.00;96236.13;4967479;28;20496;-76
2022/09/25 01:38:52;;;;;;;0.10;0.10;;;;;;;11.57;100.00;96223.28;4966603;28;20549;-76
2022/09/25 01:41:57;;;;;;;0.10;0.10;;;;;;;11.55;100.00;96222.75;4966080;28;20046;-76
2022/09/25 01:44:49;;;;;;;0.10;0.10;;;;;;;11.60;100.00;96231.63;4966508;28;20042;-76
2022/09/25 01:47:37;;;;;;;0.10;0.10;;;;;;;11.66;100.00;96232.44;4938086;28;20058;-76
2022/09/25 01:50:31;;;;;;;0.10;0.10;;;;;;;11.63;100.00;96228.41;4946351;28;20126;-76
2022/09/25 01:53:22;;;;;;;0.10;0.10;;;;;;;11.54;100.00;96229.97;4943937;28;20046;-77
2022/09/25 01:56:16;;;;;;;0.10;0.10;;;;;;;11.38;100.00;96229.09;4946185;28;20097;-76
2022/09/25 01:59:14;;;;;;;0.10;0.10;;;;;;;11.46;100.00;96224.31;4946906;28;20396;-76
2022/09/25 02:02:05;;;;;;;0.10;0.10;;;;;;;11.34;100.00;96214.56;4944931;28;20650;-76
2022/09/25 02:05:17;;;;;;;0.10;0.10;;;;;;;11.32;100.00;96218.59;4922294;28;20354;-76
2022/09/25 02:08:06;;;;;;;;;;;;;;;11.30;100.00;96215.38;4946774;28;20078;-76
2022/09/25 02:11:01;;;;;;;0.00;0.00;;;;;;;11.33;100.00;96218.31;4934113;28;19918;-76
2022/09/25 02:13:57;;;;;;;0.10;0.10;;;;;;;11.23;100.00;96212.09;4944605;28;20049;-76
2022/09/25 02:16:49;;;;;;;0.10;0.10;;;;;;;11.16;100.00;96223.03;4932256;28;20125;-76
2022/09/25 02:22:39;;;;;;;0.10;0.10;;;;;;;11.25;100.00;96216.13;4946197;28;20085;-76
2022/09/25 02:25:55;;;;;;;0.10;0.10;;;;;;;11.33;100.00;96210.28;4943227;28;20043;-76
2022/09/25 02:28:42;;;;;;;0.10;0.10;;;;;;;11.33;100.00;96210.28;4946421;28;20142;-76
2022/09/25 02:31:34;;;;;;;0.10;0.10;;;;;;;11.37;100.00;96213.28;4945742;28;20509;-76
2022/09/25 02:34:21;;;;;;;0.10;0.10;;;;;;;11.30;100.00;96223.41;4949342;28;20372;-76
2022/09/25 02:37:16;;;;;;;0.10;0.10;;;;;;;11.33;100.00;96223.69;4942322;28;20046;-76
2022/09/25 02:40:03;;;;;;;0.10;0.10;;;;;;;11.21;100.00;96225.75;4944578;28;20227;-76
2022/09/25 02:43:05;;;;;;;0.10;0.10;;;;;;;11.04;100.00;96222.41;4946984;28;20377;-76
2022/09/25 02:46:19;;;;;;;0.10;0.10;;;;;;;10.93;100.00;96221.53;4949924;28;20364;-76
2022/09/25 02:49:18;;;;;;;0.10;0.10;;;;;;;10.88;100.00;96233.00;4966836;28;20093;-76
2022/09/25 02:52:10;;;;;;;0.10;0.10;;;;;;;10.86;100.00;96235.13;4964616;28;20047;-76
2022/09/25 02:55:10;;;;;;;0.10;0.10;;;;;;;10.76;100.00;96229.69;4952725;28;20319;-76
2022/09/25 02:58:23;;;;;;;0.10;0.10;;;;;;;10.82;100.00;96231.38;4966359;28;20073;-76
2022/09/25 03:01:14;;;;;;;0.10;0.10;;;;;;;10.89;100.00;96228.44;4963100;28;20038;-76
2022/09/25 03:04:03;;;;;;;0.00;0.00;;;;;;;10.74;100.00;96218.44;4954395;28;20058;-76
2022/09/25 03:06:49;;;;;;;0.10;0.10;;;;;;;10.67;100.00;96220.53;4953589;28;20070;-76
2022/09/25 03:09:38;;;;;;;0.10;0.10;;;;;;;10.75;100.00;96225.41;4966568;28;20485;-75
2022/09/25 03:12:24;;;;;;;0.10;0.10;;;;;;;10.80;100.00;96221.94;4974854;28;20058;-76
2022/09/25 03:15:11;;;;;;;0.00;0.00;;;;;;;10.79;100.00;96223.81;4974368;28;20053;-76
2022/09/25 03:17:57;;;;;;;0.10;0.10;;;;;;;10.92;100.00;96227.16;4955517;28;20050;-76
2022/09/25 03:20:43;;;;;;;0.10;0.10;;;;;;;10.83;100.00;96224.94;4970530;28;20045;-76
2022/09/25 03:23:31;;;;;;;0.10;0.10;;;;;;;10.99;100.00;96227.75;4970417;28;20068;-76
2022/09/25 03:26:19;;;;;;;0.10;0.10;;;;;;;10.91;100.00;96229.03;4956965;28;20042;-76
2022/09/25 03:29:05;;;;;;;0.10;0.10;;;;;;;11.07;100.00;96219.22;4969177;28;20303;-76
2022/09/25 03:31:51;;;;;;;0.00;0.00;;;;;;;11.04;100.00;96225.88;4966054;28;20046;-76
2022/09/25 03:34:36;;;;;;;0.00;0.00;;;;;;;11.12;100.00;96216.56;4968796;28;20137;-76
2022/09/25 03:37:24;;;;;;;0.00;0.00;;;;;;;11.05;100.00;96221.34;4969114;28;20128;-76
2022/09/25 03:40:09;;;;;;;0.00;0.00;;;;;;;11.13;100.00;96219.03;4966212;28;20061;-76
2022/09/25 03:42:56;;;;;;;0.10;0.10;;;;;;;11.21;100.00;96214.25;4943295;28;20046;-76
2022/09/25 03:45:41;;;;;;;0.10;0.10;;;;;;;11.19;100.00;96217.16;4968928;28;20120;-76
2022/09/25 03:48:27;;;;;;;0.00;0.00;;;;;;;11.22;100.00;96213.97;4967140;28;20374;-76
2022/09/25 03:51:14;;;;;;;0.00;0.00;;;;;;;11.22;100.00;96213.97;4951816;28;20165;-76
2022/09/25 03:54:00;;;;;;;0.00;0.00;;;;;;;11.28;100.00;96212.13;4968199;28;20046;-76
2022/09/25 03:56:45;;;;;;;0.10;0.10;;;;;;;11.29;100.00;96209.22;4967730;28;20112;-76
2022/09/25 03:59:32;;;;;;;0.10;0.10;;;;;;;11.29;100.00;96206.53;4967219;28;20050;-76
2022/09/25 04:02:18;;;;;;;0.10;0.10;;;;;;;11.29;100.00;96208.41;4969293;28;20133;-76
2022/09/25 04:05:04;;;;;;;0.10;0.10;;;;;;;11.23;100.00;96210.25;4957142;28;20683;-76
2022/09/25 04:07:50;;;;;;;0.10;0.10;;;;;;;11.25;100.00;96216.13;4969248;28;20056;-76
2022/09/25 04:10:37;;;;;;;0.08;0.08;;;;;;;11.21;100.00;96214.25;4967532;28;20600;-76
2022/09/25 04:13:25;;;;;;;0.00;0.00;;;;;;;11.08;100.00;96220.84;4969670;28;20061;-76
2022/09/25 04:16:12;;;;;;;0.10;0.10;;;;;;;11.05;100.00;96216.81;4970066;28;20042;-76
2022/09/25 04:18:58;;;;;;;0.10;0.10;;;;;;;11.10;100.00;96218.72;4969762;28;20043;-76
2022/09/25 04:21:44;;;;;;;0.10;0.10;;;;;;;11.13;100.00;96213.66;4966759;28;20042;-76
2022/09/25 04:24:48;;;;;;;0.00;0.00;;;;;;;11.02;100.00;96216.50;4969305;28;20039;-76
2022/09/25 04:27:35;;;;;;;0.10;0.10;;;;;;;11.07;100.00;96220.03;4969929;28;20183;-76
2022/09/25 04:30:22;;;;;;;0.10;0.10;;;;;;;10.97;100.00;96228.00;4963188;28;20046;-76
2022/09/25 04:36:17;;;;;;;0.10;0.10;;;;;;;11.00;100.00;96215.97;4966341;28;20143;-76
2022/09/25 04:39:03;;;;;;;0.10;0.10;;;;;;;10.95;100.00;96223.94;4956413;28;20039;-76
2022/09/25 04:41:50;;;;;;;0.00;0.00;;;;;;;10.74;100.00;96217.63;4968992;28;20441;-76
2022/09/25 04:44:35;;;;;;;0.10;0.10;;;;;;;10.76;100.00;96224.34;4968500;28;20400;-76
2022/09/25 04:47:23;;;;;;;0.00;0.00;;;;;;;10.82;100.00;96215.31;4967112;28;20109;-76
2022/09/25 04:50:09;;;;;;;0.17;0.17;;;;;;;10.65;100.00;96227.97;4962831;28;20043;-76
2022/09/25 04:52:59;;;;;;;0.10;0.10;;;;;;;10.65;100.00;96233.34;4968093;28;20494;-76
2022/09/25 04:55:46;;;;;;;0.10;0.10;;;;;;;10.54;100.00;96229.78;4970465;28;20042;-76
2022/09/25 04:58:32;;;;;;;0.10;0.10;;;;;;;10.57;100.00;96231.13;4971718;28;20050;-76
2022/09/25 05:01:19;;;;;;;0.10;0.10;;;;;;;10.59;100.00;96239.72;4950559;28;20042;-76
2022/09/25 05:04:05;;;;;;;0.10;0.10;;;;;;;10.53;100.00;96238.06;4967063;28;20724;-76
2022/09/25 05:06:51;;;;;;;0.10;0.10;;;;;;;10.46;100.00;96234.78;4958983;28;20685;-76
2022/09/25 05:09:37;;;;;;;0.10;0.10;;;;;;;10.41;100.00;96232.03;4968246;28;20038;-75
2022/09/25 05:12:22;;;;;;;0.10;0.10;;;;;;;10.45;100.00;96242.00;4969206;28;20233;-75
2022/09/25 05:15:09;;;;;;;0.10;0.10;;;;;;;10.48;100.00;96246.03;4968550;28;20417;-75
2022/09/25 05:18:06;;;;;;;0.00;0.00;;;;;;;10.47;100.00;96236.38;4956764;28;20035;-76
2022/09/25 05:20:53;;;;;;;0.10;0.10;;;;;;;10.46;100.00;96238.25;4967756;28;20042;-76
2022/09/25 05:23:38;;;;;;;0.08;0.08;;;;;;;10.58;100.00;96238.09;4969805;28;20042;-76
2022/09/25 05:26:27;;;;;;;0.10;0.10;;;;;;;10.66;100.00;96239.50;4966978;28;20249;-75
2022/09/25 05:29:13;;;;;;;0.00;0.00;;;;;;;10.61;100.00;96240.28;4963861;28;20070;-76
2022/09/25 05:31:59;;;;;;;0.10;0.10;;;;;;;10.51;100.00;96243.66;4965923;28;20253;-75
2022/09/25 05:34:45;;;;;;;0.00;0.00;;;;;;;10.45;100.00;96243.88;4966361;28;20082;-75
2022/09/25 05:37:33;;;;;;;0.10;0.10;;;;;;;10.46;100.00;96235.56;4965805;28;20042;-76
2022/09/25 05:40:20;;;;;;;0.10;0.10;;;;;;;10.58;100.00;96241.59;4970714;28;20039;-75
2022/09/25 05:43:05;;;;;;;0.10;0.10;;;;;;;10.55;100.00;96241.28;4966799;28;20042;-75
2022/09/25 05:45:54;;;;;;;0.00;0.00;;;;;;;10.44;100.00;96245.72;4967581;28;20097;-76
2022/09/25 05:48:41;;;;;;;0.10;0.10;;;;;;;10.43;100.00;96257.50;4964551;28;20039;-75
2022/09/25 05:51:27;;;;;;;0.10;0.10;;;;;;;10.48;100.00;96241.47;4965461;28;20050;-76
2022/09/25 05:54:13;;;;;;;0.00;0.00;;;;;;;10.58;100.00;96248.78;4968764;28;20540;-76
2022/09/25 05:56:59;;;;;;;0.10;0.10;;;;;;;10.59;100.00;96245.06;4966844;28;20557;-76
2022/09/25 05:59:44;;;;;;;0.00;0.00;;;;;;;10.70;100.00;96249.44;4966002;28;20053;-76
2022/09/25 06:02:30;;;;;;;0.10;0.10;;;;;;;10.69;100.00;96244.34;4967732;28;20509;-75
2022/09/25 06:05:16;;;;;;;0.00;0.00;;;;;;;10.77;100.00;96255.41;4966589;28;20068;-76
2022/09/25 06:08:02;;;;;;;0.15;0.10;;;;;;;10.76;100.00;96251.13;4967244;28;20191;-76
2022/09/25 06:10:54;;;;;;;0.17;0.10;;;;;;;10.76;100.00;96251.13;4966690;28;20073;-76
2022/09/25 06:13:44;;;;;;;0.10;0.10;;;;;;;10.85;100.00;96254.94;4968853;28;20046;-76
2022/09/25 06:16:30;;;;;;;0.03;0.03;;;;;;;10.81;100.00;96253.81;4967063;28;20236;-76
2022/09/25 06:19:16;;;;;;;0.30;0.20;;;;;;;10.76;100.00;96263.69;4968242;28;20035;-76
2022/09/25 06:22:02;;;;;;;0.10;0.10;;;;;;;10.70;100.00;96262.03;4964527;28;20050;-76
2022/09/25 06:24:48;;;;;;;0.10;0.10;;;;;;;10.86;100.00;96261.09;4966339;28;20046;-76
2022/09/25 06:27:36;;;;;;;0.00;0.00;;;;;;;10.70;100.00;96264.69;4968744;28;20046;-76
2022/09/25 06:30:27;;;;;;;0.10;0.10;;;;;;;10.55;100.00;96276.88;4622714;28;10000788;-76
2022/09/25 06:33:13;;;;;;;0.10;0.10;;;;;;;10.76;100.00;96261.81;4937865;28;20526;-75
2022/09/25 06:35:59;;;;;;;0.10;0.10;;;;;;;10.82;100.00;96260.00;4966015;28;20069;-76
2022/09/25 06:38:45;;;;;;;0.10;0.10;;;;;;;10.88;100.00;96267.00;4969508;28;20303;-76
2022/09/25 06:41:31;;;;;;;0.05;0.05;;;;;;;11.02;100.00;96254.00;4963023;28;20038;-76
2022/09/25 06:44:20;;;;;;;0.10;0.10;;;;;;;11.01;100.00;96263.09;4947661;28;20504;-76
2022/09/25 06:47:06;;;;;;;0.10;0.10;;;;;;;11.02;100.00;96259.34;4955113;28;20042;-76
2022/09/25 06:49:52;;;;;;;0.10;0.10;;;;;;;11.03;100.00;96258.28;4968242;28;20417;-77
2022/09/25 06:52:42;;;;;;;0.10;0.10;;;;;;;11.00;100.00;96258.81;4972106;28;20038;-75
2022/09/25 06:55:31;;;;;;;0.10;0.10;;;;;;;11.00;100.00;96251.56;4971711;28;20038;-76
2022/09/25 06:58:19;;;;;;;0.10;0.10;;;;;;;11.04;100.00;96250.00;4969580;28;20089;-76
2022/09/25 07:01:09;;;;;;;0.10;0.10;;;;;;;11.29;100.00;96256.63;4967423;28;20560;-76
2022/09/25 07:03:55;;;;;;;0.20;0.20;;;;;;;11.38;100.00;96253.19;4969065;28;20525;-76
2022/09/25 07:06:40;;;;;;;0.10;0.10;;;;;;;11.39;100.00;96257.47;4971536;28;20042;-76
2022/09/25 07:09:29;;;;;;;0.03;0.03;;;;;;;11.35;100.00;96258.25;4970950;28;20046;-76
2022/09/25 07:12:17;;;;;;;0.10;0.10;;;;;;;11.44;100.00;96260.22;4968697;28;20144;-76
2022/09/25 07:15:03;;;;;;;0.10;0.10;;;;;;;11.51;100.00;96265.31;4972013;28;20537;-76
2022/09/25 07:17:49;;;;;;;0.10;0.10;;;;;;;11.34;100.00;96262.00;4971075;28;20078;-76
2022/09/25 07:20:36;;;;;;;0.10;0.10;;;;;;;11.43;100.00;96258.56;4971729;28;20038;-76
2022/09/25 07:23:22;;;;;;;0.10;0.10;;;;;;;11.56;100.00;96264.56;4970729;28;20086;-76
2022/09/25 07:26:11;;;;;;;0.10;0.10;;;;;;;11.48;100.00;96260.47;4969053;28;20505;-76
2022/09/25 07:29:02;;;;;;;0.10;0.10;;;;;;;11.67;100.00;96248.28;4968498;28;20070;-76
2022/09/25 07:31:48;;;;;;;0.10;0.10;;;;;;;11.52;100.00;96255.44;4959764;28;20046;-76
2022/09/25 07:34:35;;;;;;;0.10;0.10;;;;;;;11.32;100.00;96266.81;4968307;28;20045;-75
2022/09/25 07:37:20;;;;;;;0.10;0.10;;;;;;;11.55;100.00;96260.25;4966060;28;20081;-76
2022/09/25 07:40:10;;;;;;;0.00;0.00;;;;;;;11.64;100.00;96247.97;4966332;28;20042;-77
2022/09/25 07:43:00;;;;;;;0.10;0.10;;;;;;;11.48;100.00;96251.63;4958263;28;20081;-76
2022/09/25 07:45:52;;;;;;;0.00;0.00;;;;;;;11.51;100.00;96259.16;4957519;28;20073;-76
2022/09/25 07:48:38;;;;;;;0.00;0.00;;;;;;;11.63;100.00;96252.53;4940399;28;20073;-75
2022/09/25 07:51:25;;;;;;;0.00;0.00;;;;;;;11.52;100.00;96258.91;4966347;28;20461;-76
2022/09/25 07:54:11;;;;;;;0.10;0.10;;;;;;;11.56;100.00;96251.94;4956784;28;20545;-76
2022/09/25 07:56:56;;;;;;;0.15;0.15;;;;;;;11.55;100.00;96263.75;4969006;28;20422;-76
2022/09/25 07:59:42;;;;;;;0.10;0.10;;;;;;;11.62;100.00;96256.28;4971224;28;20700;-76
2022/09/25 08:02:28;;;;;;;0.10;0.10;;;;;;;11.49;100.00;96259.41;4968866;28;20049;-76
2022/09/25 08:05:14;;;;;;;0.10;0.10;;;;;;;11.38;100.00;96257.75;4969846;28;20074;-76
2022/09/25 08:08:00;;;;;;;0.10;0.10;;;;;;;11.30;100.00;96268.94;4967378;28;20101;-76
2022/09/25 08:10:46;;;;;;;0.10;0.10;;;;;;;11.08;100.00;96266.38;4968673;28;20611;-76
2022/09/25 08:13:33;;;;;;;0.10;0.10;;;;;;;11.08;100.00;96264.50;4969098;28;20043;-76
2022/09/25 08:16:21;;;;;;;0.15;0.15;;;;;;;10.97;100.00;96278.03;4969254;28;20038;-76
2022/09/25 08:19:07;;;;;;;0.13;0.13;;;;;;;10.92;100.00;96280.69;4968653;28;20069;-76
2022/09/25 08:21:53;;;;;;;0.10;0.10;;;;;;;10.93;100.00;96280.44;4966052;28;20070;-76
2022/09/25 08:24:41;;;;;;;0.10;0.10;;;;;;;11.01;100.00;96284.50;4970718;28;20038;-75
2022/09/25 08:27:30;;;;;;;0.10;0.10;;;;;;;10.86;100.00;96288.66;4970214;28;20340;-76
2022/09/25 08:30:17;;;;;;;0.15;0.10;;;;;;;11.03;100.00;96293.09;4970281;28;20272;-75
2022/09/25 08:33:03;;;;;;;0.10;0.10;;;;;;;10.78;100.00;96294.47;4967766;28;20437;-75
2022/09/25 08:36:00;;;;;;;0.10;0.10;;;;;;;10.79;100.00;96292.59;4969314;28;20031;-76
2022/09/25 08:38:47;;;;;;;0.10;0.10;;;;;;;10.93;100.00;96295.69;4970381;28;20050;-75
2022/09/25 08:41:42;;;;;;;0.10;0.10;;;;;;;11.02;100.00;96292.28;4971287;28;20058;-76
2022/09/25 08:44:36;;;;;;;0.10;0.10;;;;;;;10.91;100.00;96293.28;4969336;28;20050;-76
2022/09/25 08:50:29;;;;;;;0.10;0.10;;;;;;;11.10;100.00;96293.69;4969813;28;20069;-76
2022/09/25 08:53:23;;;;;;;0.10;0.10;;;;;;;11.23;100.00;96297.81;4589137;28;9999918;-76
2022/09/25 08:56:14;;;;;;;0.10;0.10;;;;;;;11.22;100.00;96293.53;4922215;28;20584;-76
2022/09/25 08:59:08;;;;;;;0.10;0.10;;;;;;;11.18;100.00;96290.53;4957415;28;20054;-75
2022/09/25 09:02:02;;;;;;;0.10;0.10;;;;;;;11.36;100.00;96292.84;4966444;28;20404;-75
2022/09/25 09:04:52;;;;;;;0.10;0.10;;;;;;;11.53;100.00;96281.16;4967263;28;20112;-76
2022/09/25 09:07:45;;;;;;;0.10;0.10;;;;;;;11.66;100.00;96291.41;4966942;28;20050;-77
2022/09/25 09:10:44;;;;;;;0.10;0.10;;;;;;;11.64;100.00;96288.19;4958187;28;20049;-76
2022/09/25 09:13:35;;;;;;;0.10;0.10;;;;;;;11.73;100.00;96295.47;4970476;28;20271;-75
2022/09/25 09:16:42;;;;;;;0.10;0.10;;;;;;;11.78;100.00;96299.25;4968448;28;20038;-76
2022/09/25 09:19:28;;;;;;;0.10;0.10;;;;;;;11.57;100.00;96295.63;4963236;28;20532;-76
2022/09/25 09:22:25;;;;;;;0.10;0.10;;;;;;;11.50;100.00;96295.84;4967741;28;20050;-75
2022/09/25 09:25:14;;;;;;;0.10;0.10;;;;;;;11.76;100.00;96301.41;4965659;28;20253;-76
2022/09/25 09:28:27;;;;;;;0.10;0.10;;;;;;;11.79;100.00;96285.59;4967108;28;20328;-75
2022/09/25 09:31:36;;;;;;;0.10;0.10;;;;;;;11.59;100.00;96286.25;4964829;28;20355;-76
2022/09/25 09:34:28;;;;;;;0.10;0.10;;;;;;;11.35;100.00;96285.03;4948131;28;20351;-75
2022/09/25 09:37:30;;;;;;;0.13;0.10;;;;;;;11.33;100.00;96297.88;4963419;28;20085;-75
2022/09/25 09:40:28;;;;;;;0.10;0.10;;;;;;;11.64;100.00;96296.22;4955139;28;20043;-76
2022/09/25 09:43:39;;;;;;;0.10;0.10;;;;;;;11.54;100.00;96296.16;4968013;28;20101;-75
2022/09/25 09:46:48;;;;;;;0.10;0.10;;;;;;;11.56;100.00;96294.03;4961758;28;20133;-75
2022/09/25 09:49:49;;;;;;;0.10;0.10;;;;;;;11.61;100.00;96299.44;4969025;28;20473;-76
2022/09/25 09:52:39;;;;;;;0.10;0.10;;;;;;;11.83;100.00;96289.41;4966778;28;20553;-75
2022/09/25 09:55:48;;;;;;;0.10;0.10;;;;;;;11.46;100.00;96296.66;4956439;28;20102;-76
2022/09/25 09:58:42;;;;;;;0.28;0.20;;;;;;;11.50;100.00;96305.78;4959094;28;20039;-75
2022/09/25 10:01:34;;;;;;;0.05;0.05;;;;;;;11.70;100.00;96296.00;4965923;28;20050;-75
2022/09/25 10:04:26;;;;;;;0.20;0.20;;;;;;;11.76;100.00;96296.03;4967400;28;20293;-75
2022/09/25 10:07:17;;;;;;;0.10;0.10;;;;;;;11.74;100.00;96298.94;4967537;28;20501;-76
2022/09/25 10:10:15;;;;;;;0.20;0.20;;;;;;;11.83;100.00;96297.44;4966296;28;20064;-75
2022/09/25 10:13:05;;;;;;;0.10;0.10;;;;;;;11.69;100.00;96293.59;4965169;28;20095;-75
2022/09/25 10:15:56;;;;;;;0.15;0.15;;;;;;;11.90;100.00;96294.50;4950574;28;20038;-76
2022/09/25 10:18:50;;;;;;;0.10;0.10;;;;;;;11.66;100.00;96291.41;4955271;28;20050;-75
2022/09/25 10:21:58;;;;;;;0.10;0.10;;;;;;;11.87;100.00;96279.75;4967292;28;20080;-75
2022/09/25 10:24:53;;;;;;;0.10;0.10;;;;;;;11.90;100.00;96281.91;4956473;28;20076;-75
2022/09/25 10:27:45;;;;;;;0.10;0.10;;;;;;;11.99;100.00;96274.19;4968241;28;20360;-75
2022/09/25 10:30:31;;;;;;;0.10;0.10;;;;;;;11.83;100.00;96280.53;4956501;28;20044;-75
2022/09/25 10:33:29;;;;;;;0.10;0.10;;;;;;;11.94;100.00;96285.69;4619671;28;10000486;-75
2022/09/25 10:36:33;;;;;;;0.10;0.10;;;;;;;12.07;100.00;96278.25;4962502;28;20281;-75
2022/09/25 10:39:31;;;;;;;0.10;0.10;;;;;;;12.23;100.00;96275.38;4940438;28;20046;-76
2022/09/25 10:42:39;;;;;;;0.10;0.10;;;;;;;12.10;100.00;96280.41;4964626;28;20461;-75
2022/09/25 10:45:29;;;;;;;0.10;0.10;;;;;;;12.21;100.00;96269.44;4966982;28;20264;-76
2022/09/25 10:52:04;;;;;;;0.10;0.10;;;;;;;11.73;100.00;96279.38;4950023;28;20047;-76
2022/09/25 10:54:51;;;;;;;0.10;0.10;;;;;;;11.69;100.00;96285.53;4949541;28;20097;-76
2022/09/25 10:57:37;;;;;;;0.10;0.10;;;;;;;11.40;100.00;96285.88;4952268;28;20558;-75
2022/09/25 11:00:25;;;;;;;0.10;0.10;;;;;;;11.30;100.00;96296.53;4948925;28;20349;-75
2022/09/25 11:03:27;;;;;;;0.15;0.13;;;;;;;11.54;100.00;96294.28;4950562;28;20054;-75
2022/09/25 11:06:13;;;;;;;0.08;0.08;;;;;;;11.47;100.00;96292.91;4938442;28;20789;-75
2022/09/25 11:08:59;;;;;;;0.10;0.10;;;;;;;11.64;100.00;96299.72;4952555;28;20058;-75
2022/09/25 11:11:47;;;;;;;0.10;0.10;;;;;;;11.33;100.00;96292.53;4948094;28;20057;-75
2022/09/25 11:14:34;;;;;;;0.00;0.00;;;;;;;11.64;100.00;96293.53;4935547;28;20035;-76
2022/09/25 11:17:40;;;;;;;0.10;0.10;;;;;;;11.63;100.00;96291.94;4937244;28;20406;-75
2022/09/25 11:20:28;;;;;;;0.10;0.10;;;;;;;11.37;100.00;96294.44;4945117;28;20081;-75
2022/09/25 11:23:17;;;;;;;0.10;0.10;;;;;;;11.25;100.00;96299.16;4950809;28;20272;-75
2022/09/25 11:26:17;;;;;;;0.10;0.10;;;;;;;11.30;100.00;96290.38;4946309;28;20452;-75
2022/09/25 11:29:17;;;;;;;0.10;0.10;;;;;;;11.08;100.00;96285.91;4949669;28;20046;-76
2022/09/25 11:32:26;;;;;;;0.10;0.10;;;;;;;11.10;100.00;96283.78;4936973;28;20098;-75
2022/09/25 11:35:23;;;;;;;0.10;0.10;;;;;;;11.23;100.00;96279.88;4950047;28;20393;-75
2022/09/25 11:41:37;;;;;;;0.10;0.10;;;;;;;11.42;100.00;96278.38;4950761;28;20506;-75
2022/09/25 11:44:30;;;;;;;0.10;0.10;;;;;;;11.67;100.00;96284.97;4953564;28;20042;-75
2022/09/25 11:47:23;;;;;;;0.10;0.10;;;;;;;11.79;100.00;96274.06;4962191;28;20054;-75
2022/09/25 11:50:14;;;;;;;0.10;0.10;;;;;;;11.96;100.00;96269.34;4954720;28;20335;-75
2022/09/25 11:53:53;;;;;;;0.10;0.10;;;;;;;11.93;100.00;96270.69;4970631;28;20087;-75
2022/09/25 11:56:52;;;;;;;0.17;0.17;;;;;;;11.84;100.00;96268.75;4946551;28;20050;-75
2022/09/25 11:59:58;;;;;;;0.10;0.10;;;;;;;11.66;100.00;96275.31;4957509;28;20042;-75
2022/09/25 12:03:30;;;;;;;0.10;0.10;;;;;;;12.19;100.00;96274.25;4966864;28;20056;-76
2022/09/25 12:06:28;;;;;;;;;;;;;;;11.91;100.00;96261.28;4966359;28;20702;-76
2022/09/25 12:09:33;;;;;;;0.15;0.10;;;;;;;12.28;100.00;96264.63;4966074;28;20303;-76
2022/09/25 12:12:31;;;;;;;0.10;0.10;;;;;;;12.35;100.00;96259.03;4967943;28;20050;-76
2022/09/25 12:15:48;;;;;;;0.05;0.05;;;;;;;12.22;100.00;96256.84;4969616;28;20166;-75
2022/09/25 12:18:39;;;;;;;0.10;0.10;;;;;;;12.21;100.00;96255.22;4959485;28;20043;-76
2022/09/25 12:22:10;;;;;;;0.10;0.10;;;;;;;12.27;100.00;96248.81;4969800;28;20038;-76
2022/09/25 12:25:15;;;;;;;0.10;0.10;;;;;;;12.31;100.00;96239.16;4960243;28;20195;-76
2022/09/25 12:28:16;;;;;;;0.10;0.10;;;;;;;12.43;100.00;96249.66;4956907;28;20049;-76
2022/09/25 12:31:19;;;;;;;0.10;0.10;;;;;;;12.22;100.00;96254.19;4966325;28;20054;-76
2022/09/25 12:34:14;;;;;;;0.10;0.10;;;;;;;12.37;100.00;96251.50;4970403;28;20426;-76
2022/09/25 12:37:21;;;;;;;0.20;0.20;;;;;;;12.43;100.00;96246.97;4969352;28;20042;-75
2022/09/25 12:40:54;;;;;;;0.10;0.10;;;;;;;12.57;100.00;96252.63;4966124;28;20046;-76
2022/09/25 12:43:47;;;;;;;0.20;0.20;;;;;;;12.43;100.00;96247.78;4944707;28;20123;-76
2022/09/25 12:47:00;;;;;;;0.10;0.10;;;;;;;12.38;100.00;96238.94;4945128;28;20050;-76
2022/09/25 12:50:08;;;;;;;0.10;0.10;;;;;;;12.64;100.00;96245.94;4966553;28;20047;-76
2022/09/25 12:53:00;;;;;;;0.10;0.10;;;;;;;12.64;100.00;96242.47;4956940;28;20426;-76
2022/09/25 12:55:55;;;;;;;0.10;0.10;;;;;;;12.62;100.00;96249.97;4955226;28;20046;-76
2022/09/25 12:59:12;;;;;;;0.10;0.10;;;;;;;12.75;100.00;96247.56;4971256;28;20513;-76
2022/09/25 13:02:12;;;;;;;0.10;0.10;;;;;;;12.75;100.00;96244.06;4941392;28;20197;-76
2022/09/25 13:05:19;;;;;;;0.10;0.10;;;;;;;13.08;100.00;96232.00;4968254;28;20438;-76
2022/09/25 13:08:28;;;;;;;0.20;0.20;;;;;;;13.48;100.00;96241.13;4967857;28;20073;-76
2022/09/25 13:11:26;;;;;;;0.10;0.10;;;;;;;13.80;100.00;96235.41;4970599;28;20039;-76
2022/09/25 13:14:33;;;;;;;0.10;0.10;;;;;;;14.07;100.00;96222.38;4966426;28;20050;-76
2022/09/25 13:17:19;;;;;;;0.10;0.10;;;;;;;14.06;100.00;96228.03;4968213;28;20046;-76
2022/09/25 13:20:41;;;;;;;0.10;0.10;;;;;;;15.00;100.00;96215.34;4967634;28;20380;-76
2022/09/25 13:23:34;;;;;;;;;;;;;;;15.70;100.00;96209.59;4968560;28;20450;-75
2022/09/25 13:26:25;;;;;;;0.10;0.10;;;;;;;15.88;100.00;96216.97;4966148;28;20057;-75
2022/09/25 13:29:37;;;;;;;0.10;0.10;;;;;;;16.29;100.00;96201.03;4968351;28;20123;-76
2022/09/25 13:32:33;;;;;;;0.10;0.10;;;;;;;16.41;100.00;96201.41;4968251;28;20050;-76
2022/09/25 13:35:21;;;;;;;0.10;0.10;;;;;;;15.11;100.00;96203.41;4968685;28;20054;-76
2022/09/25 13:40:41;;;;;;;0.10;0.10;;;;;;;15.33;100.00;96211.84;4968159;28;20308;-75
2022/09/25 13:41:22;;;;;;;0.10;0.10;;;;;;;15.81;100.00;96203.81;4968331;28;20042;-76